sensor_id;sensor_type;location;lat;lon;timestamp;pressure;altitude;pressure_sealevel;temperature;humidity
13050;BME280;6591;51.446;5.404;2024-03-29T00:01:26;98789.56;;;14.85;43.07
13050;BME280;6591;51.446;5.404;2024-03-29T00:03:52;98780.56;;;14.86;43.03
13050;BME280;6591;51.446;5.404;2024-03-29T00:06:20;98782.53;;;14.84;43.22
13050;BME280;6591;51.446;5.404;2024-03-29T00:08:46;98780.84;;;14.83;43.04
13050;BME280;6591;51.446;5.404;2024-03-29T00:11:12;98783.38;;;14.84;42.85
13050;BME280;6591;51.446;5.404;2024-03-29T00:13:39;98782.53;;;14.84;43.21
13050;BME280;6591;51.446;5.404;2024-03-29T00:16:06;98777.19;;;14.84;43.14
13050;BME280;6591;51.446;5.404;2024-03-29T00:18:32;98793.22;;;14.84;43.26
13050;BME280;6591;51.446;5.404;2024-03-29T00:20:58;98798.56;;;14.84;43.13
13050;BME280;6591;51.446;5.404;2024-03-29T00:23:24;98801.38;;;14.82;43.08
13050;BME280;6591;51.446;5.404;2024-03-29T00:25:50;98802.34;;;14.81;43.32
13050;BME280;6591;51.446;5.404;2024-03-29T00:28:17;98807.56;;;14.83;43.30
13050;BME280;6591;51.446;5.404;2024-03-29T00:30:43;98820.94;;;14.83;43.17
13050;BME280;6591;51.446;5.404;2024-03-29T00:33:09;98813.03;;;14.81;43.03
13050;BME280;6591;51.446;5.404;2024-03-29T00:35:35;98817.56;;;14.81;43.02
13050;BME280;6591;51.446;5.404;2024-03-29T00:38:01;98809.56;;;14.81;43.26
13050;BME280;6591;51.446;5.404;2024-03-29T00:40:27;98808.84;;;14.79;43.23
13050;BME280;6591;51.446;5.404;2024-03-29T00:42:53;98818.84;;;14.77;43.29
13050;BME280;6591;51.446;5.404;2024-03-29T00:45:19;98827.16;;;14.74;42.90
13050;BME280;6591;51.446;5.404;2024-03-29T00:47:45;98823.09;;;14.70;42.99
13050;BME280;6591;51.446;5.404;2024-03-29T00:50:11;98827.72;;;14.68;42.91
13050;BME280;6591;51.446;5.404;2024-03-29T00:52:37;98837.88;;;14.64;43.20
13050;BME280;6591;51.446;5.404;2024-03-29T00:55:04;98836.31;;;14.62;43.33
13050;BME280;6591;51.446;5.404;2024-03-29T00:57:31;98832.13;;;14.59;43.30
13050;BME280;6591;51.446;5.404;2024-03-29T00:59:57;98832.69;;;14.53;43.15
13050;BME280;6591;51.446;5.404;2024-03-29T01:02:23;98833.97;;;14.49;43.21
13050;BME280;6591;51.446;5.404;2024-03-29T01:04:50;98839.72;;;14.45;43.06
13050;BME280;6591;51.446;5.404;2024-03-29T01:07:17;98838.34;;;14.40;43.17
13050;BME280;6591;51.446;5.404;2024-03-29T01:09:43;98836.06;;;14.36;43.34
13050;BME280;6591;51.446;5.404;2024-03-29T01:12:10;98831.88;;;14.33;43.37
13050;BME280;6591;51.446;5.404;2024-03-29T01:14:36;98839.16;;;14.31;43.61
13050;BME280;6591;51.446;5.404;2024-03-29T01:17:03;98831.28;;;14.30;44.14
13050;BME280;6591;51.446;5.404;2024-03-29T01:19:29;98826.78;;;14.30;43.90
13050;BME280;6591;51.446;5.404;2024-03-29T01:21:55;98816.97;;;14.31;43.81
13050;BME280;6591;51.446;5.404;2024-03-29T01:24:21;98809.94;;;14.30;43.77
13050;BME280;6591;51.446;5.404;2024-03-29T01:26:47;98811.50;;;14.32;43.98
13050;BME280;6591;51.446;5.404;2024-03-29T01:29:13;98799.81;;;14.33;43.75
13050;BME280;6591;51.446;5.404;2024-03-29T01:31:39;98801.50;;;14.34;43.51
13050;BME280;6591;51.446;5.404;2024-03-29T01:34:05;98792.50;;;14.35;43.83
13050;BME280;6591;51.446;5.404;2024-03-29T01:36:31;98792.50;;;14.35;43.91
13050;BME280;6591;51.446;5.404;2024-03-29T01:38:57;98781.72;;;14.37;43.94
13050;BME280;6591;51.446;5.404;2024-03-29T01:41:24;98781.59;;;14.38;43.97
13050;BME280;6591;51.446;5.404;2024-03-29T01:43:56;98756.72;;;14.38;43.94
13050;BME280;6591;51.446;5.404;2024-03-29T01:46:24;98761.88;;;14.39;44.22
13050;BME280;6591;51.446;5.404;2024-03-29T01:48:53;98745.84;;;14.39;44.20
13050;BME280;6591;51.446;5.404;2024-03-29T01:51:21;98761.75;;;14.41;44.49
13050;BME280;6591;51.446;5.404;2024-03-29T01:53:52;98779.31;;;14.44;44.28
13050;BME280;6591;51.446;5.404;2024-03-29T01:56:24;98764.97;;;14.45;44.81
13050;BME280;6591;51.446;5.404;2024-03-29T01:58:52;98761.03;;;14.49;44.34
13050;BME280;6591;51.446;5.404;2024-03-29T02:01:21;98765.09;;;14.53;44.44
13050;BME280;6591;51.446;5.404;2024-03-29T02:03:47;98762.69;;;14.59;44.27
13050;BME280;6591;51.446;5.404;2024-03-29T02:06:14;98766.88;;;14.62;44.72
13050;BME280;6591;51.446;5.404;2024-03-29T02:08:41;98765.59;;;14.66;44.61
13050;BME280;6591;51.446;5.404;2024-03-29T02:11:08;98775.69;;;14.72;44.31
13050;BME280;6591;51.446;5.404;2024-03-29T02:13:34;98771.72;;;14.76;44.70
13050;BME280;6591;51.446;5.404;2024-03-29T02:16:00;98791.84;;;14.80;44.59
13050;BME280;6591;51.446;5.404;2024-03-29T02:18:27;98787.88;;;14.84;44.38
13050;BME280;6591;51.446;5.404;2024-03-29T02:20:53;98797.13;;;14.90;44.43
13050;BME280;6591;51.446;5.404;2024-03-29T02:23:26;98796.16;;;14.91;44.84
13050;BME280;6591;51.446;5.404;2024-03-29T02:25:55;98792.91;;;14.97;44.62
13050;BME280;6591;51.446;5.404;2024-03-29T02:28:22;98795.13;;;15.01;44.45
13050;BME280;6591;51.446;5.404;2024-03-29T02:30:50;98802.81;;;15.04;44.36
13050;BME280;6591;51.446;5.404;2024-03-29T02:33:16;98795.34;;;15.08;44.53
13050;BME280;6591;51.446;5.404;2024-03-29T02:35:42;98800.41;;;15.11;44.67
13050;BME280;6591;51.446;5.404;2024-03-29T02:38:08;98799.97;;;15.15;44.61
13050;BME280;6591;51.446;5.404;2024-03-29T02:40:34;98809.34;;;15.19;44.63
13050;BME280;6591;51.446;5.404;2024-03-29T02:43:00;98802.56;;;15.25;44.58
13050;BME280;6591;51.446;5.404;2024-03-29T02:45:26;98803.66;;;15.32;44.44
13050;BME280;6591;51.446;5.404;2024-03-29T02:47:52;98808.44;;;15.38;44.66
13050;BME280;6591;51.446;5.404;2024-03-29T02:50:19;98810.34;;;15.46;44.17
13050;BME280;6591;51.446;5.404;2024-03-29T02:52:45;98805.13;;;15.54;44.42
13050;BME280;6591;51.446;5.404;2024-03-29T02:55:11;98798.16;;;15.61;44.70
13050;BME280;6591;51.446;5.404;2024-03-29T02:57:38;98799.22;;;15.68;44.47
13050;BME280;6591;51.446;5.404;2024-03-29T03:00:08;98814.69;;;15.74;44.35
13050;BME280;6591;51.446;5.404;2024-03-29T03:02:41;98816.75;;;15.80;44.44
13050;BME280;6591;51.446;5.404;2024-03-29T03:05:07;98810.25;;;15.83;44.55
13050;BME280;6591;51.446;5.404;2024-03-29T03:07:34;98809.09;;;15.85;44.72
13050;BME280;6591;51.446;5.404;2024-03-29T03:10:20;98831.50;;;15.84;44.28
13050;BME280;6591;51.446;5.404;2024-03-29T03:13:05;98831.50;;;15.84;44.46
13050;BME280;6591;51.446;5.404;2024-03-29T03:15:31;98834.03;;;15.86;44.83
13050;BME280;6591;51.446;5.404;2024-03-29T03:17:57;98834.84;;;15.86;44.83
13050;BME280;6591;51.446;5.404;2024-03-29T03:20:23;98827.13;;;15.83;44.86
13050;BME280;6591;51.446;5.404;2024-03-29T03:22:53;98839.69;;;15.83;44.87
13050;BME280;6591;51.446;5.404;2024-03-29T03:25:21;98835.31;;;15.82;44.77
13050;BME280;6591;51.446;5.404;2024-03-29T03:27:47;98821.41;;;15.78;45.04
13050;BME280;6591;51.446;5.404;2024-03-29T03:30:14;98822.38;;;15.77;44.95
13050;BME280;6591;51.446;5.404;2024-03-29T03:32:40;98805.66;;;15.75;45.08
13050;BME280;6591;51.446;5.404;2024-03-29T03:35:06;98808.47;;;15.74;45.53
13050;BME280;6591;51.446;5.404;2024-03-29T03:37:33;98813.84;;;15.74;45.10
13050;BME280;6591;51.446;5.404;2024-03-29T03:39:59;98826.38;;;15.73;45.34
13050;BME280;6591;51.446;5.404;2024-03-29T03:42:25;98829.06;;;15.73;45.56
13050;BME280;6591;51.446;5.404;2024-03-29T03:44:51;98814.81;;;15.73;45.41
13050;BME280;6591;51.446;5.404;2024-03-29T03:47:17;98817.66;;;15.71;45.55
13050;BME280;6591;51.446;5.404;2024-03-29T03:49:43;98822.31;;;15.69;45.29
13050;BME280;6591;51.446;5.404;2024-03-29T03:52:10;98818.94;;;15.67;45.50
13050;BME280;6591;51.446;5.404;2024-03-29T03:54:36;98839.50;;;15.66;45.41
13050;BME280;6591;51.446;5.404;2024-03-29T03:57:02;98836.97;;;15.65;45.46
13050;BME280;6591;51.446;5.404;2024-03-29T03:59:28;98837.81;;;15.65;45.65
13050;BME280;6591;51.446;5.404;2024-03-29T04:01:54;98842.31;;;15.65;45.79
13050;BME280;6591;51.446;5.404;2024-03-29T04:04:20;98856.72;;;15.64;45.55
13050;BME280;6591;51.446;5.404;2024-03-29T04:06:46;98855.03;;;15.63;45.80
13050;BME280;6591;51.446;5.404;2024-03-29T04:09:16;98868.69;;;15.60;45.97
13050;BME280;6591;51.446;5.404;2024-03-29T04:11:42;98871.38;;;15.60;45.96
13050;BME280;6591;51.446;5.404;2024-03-29T04:14:09;98871.16;;;15.53;46.24
13050;BME280;6591;51.446;5.404;2024-03-29T04:16:35;98883.25;;;15.48;46.12
13050;BME280;6591;51.446;5.404;2024-03-29T04:19:01;98885.66;;;15.41;46.45
13050;BME280;6591;51.446;5.404;2024-03-29T04:21:27;98869.22;;;15.36;46.22
13050;BME280;6591;51.446;5.404;2024-03-29T04:23:53;98873.47;;;15.29;46.28
13050;BME280;6591;51.446;5.404;2024-03-29T04:26:19;98866.88;;;15.23;46.42
13050;BME280;6591;51.446;5.404;2024-03-29T04:28:45;98854.13;;;15.17;46.46
13050;BME280;6591;51.446;5.404;2024-03-29T04:31:11;98861.59;;;15.14;46.68
13050;BME280;6591;51.446;5.404;2024-03-29T04:33:38;98860.34;;;15.08;47.03
13050;BME280;6591;51.446;5.404;2024-03-29T04:36:04;98875.00;;;15.04;47.04
13050;BME280;6591;51.446;5.404;2024-03-29T04:38:31;98875.56;;;14.98;47.20
13050;BME280;6591;51.446;5.404;2024-03-29T04:40:58;98861.81;;;14.93;47.30
13050;BME280;6591;51.446;5.404;2024-03-29T04:43:27;98862.13;;;14.90;47.58
13050;BME280;6591;51.446;5.404;2024-03-29T04:46:22;98853.28;;;14.80;47.67
13050;BME280;6591;51.446;5.404;2024-03-29T04:48:50;98866.47;;;14.81;47.70
13050;BME280;6591;51.446;5.404;2024-03-29T04:51:16;98854.28;;;14.79;47.60
13050;BME280;6591;51.446;5.404;2024-03-29T04:53:42;98871.28;;;14.78;47.54
13050;BME280;6591;51.446;5.404;2024-03-29T04:56:08;98868.91;;;14.75;47.95
13050;BME280;6591;51.446;5.404;2024-03-29T04:58:34;98867.38;;;14.72;48.13
13050;BME280;6591;51.446;5.404;2024-03-29T05:01:00;98857.66;;;14.71;48.00
13050;BME280;6591;51.446;5.404;2024-03-29T05:03:26;98852.47;;;14.70;48.27
13050;BME280;6591;51.446;5.404;2024-03-29T05:05:53;98850.94;;;14.67;48.05
13050;BME280;6591;51.446;5.404;2024-03-29T05:08:20;98844.75;;;14.67;48.26
13050;BME280;6591;51.446;5.404;2024-03-29T05:10:51;98844.06;;;14.65;48.38
13050;BME280;6591;51.446;5.404;2024-03-29T05:13:18;98845.03;;;14.64;48.47
13050;BME280;6591;51.446;5.404;2024-03-29T05:15:47;98847.97;;;14.61;48.58
13050;BME280;6591;51.446;5.404;2024-03-29T05:18:13;98856.00;;;14.61;48.59
13050;BME280;6591;51.446;5.404;2024-03-29T05:20:39;98854.03;;;14.63;48.57
13050;BME280;6591;51.446;5.404;2024-03-29T05:23:13;98852.34;;;14.62;48.84
13050;BME280;6591;51.446;5.404;2024-03-29T05:25:41;98836.31;;;14.62;48.77
13050;BME280;6591;51.446;5.404;2024-03-29T05:28:09;98826.47;;;14.62;48.60
13050;BME280;6591;51.446;5.404;2024-03-29T05:30:35;98820.28;;;14.62;48.87
13050;BME280;6591;51.446;5.404;2024-03-29T05:33:03;98816.63;;;14.63;48.93
13050;BME280;6591;51.446;5.404;2024-03-29T05:35:30;98821.97;;;14.63;48.87
13050;BME280;6591;51.446;5.404;2024-03-29T05:37:57;98826.34;;;14.64;49.04
13050;BME280;6591;51.446;5.404;2024-03-29T05:40:24;98823.66;;;14.64;48.91
13050;BME280;6591;51.446;5.404;2024-03-29T05:42:54;98823.53;;;14.65;49.28
13050;BME280;6591;51.446;5.404;2024-03-29T05:47:54;98843.03;;;14.66;49.16
13050;BME280;6591;51.446;5.404;2024-03-29T05:50:21;98847.41;;;14.67;49.21
13050;BME280;6591;51.446;5.404;2024-03-29T05:52:49;98851.91;;;14.66;49.24
13050;BME280;6591;51.446;5.404;2024-03-29T05:55:15;98860.75;;;14.67;49.68
13050;BME280;6591;51.446;5.404;2024-03-29T05:57:41;98855.41;;;14.67;49.51
13050;BME280;6591;51.446;5.404;2024-03-29T06:00:12;98861.59;;;14.67;49.45
13050;BME280;6591;51.446;5.404;2024-03-29T06:02:43;98856.25;;;14.67;49.76
13050;BME280;6591;51.446;5.404;2024-03-29T06:05:11;98868.66;;;14.68;49.74
13050;BME280;6591;51.446;5.404;2024-03-29T06:07:37;98867.66;;;14.69;49.93
13050;BME280;6591;51.446;5.404;2024-03-29T06:10:04;98874.69;;;14.70;49.72
13050;BME280;6591;51.446;5.404;2024-03-29T06:12:35;98874.69;;;14.70;49.96
13050;BME280;6591;51.446;5.404;2024-03-29T06:15:02;98876.22;;;14.73;50.04
13050;BME280;6591;51.446;5.404;2024-03-29T06:17:47;98876.22;;;14.73;50.14
13050;BME280;6591;51.446;5.404;2024-03-29T06:20:13;98878.59;;;14.76;50.04
13050;BME280;6591;51.446;5.404;2024-03-29T06:22:39;98869.59;;;14.77;50.30
13050;BME280;6591;51.446;5.404;2024-03-29T06:25:05;98879.03;;;14.81;50.30
13050;BME280;6591;51.446;5.404;2024-03-29T06:27:33;98886.75;;;14.84;50.38
13050;BME280;6591;51.446;5.404;2024-03-29T06:30:00;98890.13;;;14.86;50.28
13050;BME280;6591;51.446;5.404;2024-03-29T06:32:26;98887.00;;;14.91;50.57
13050;BME280;6591;51.446;5.404;2024-03-29T06:34:52;98880.38;;;14.95;50.83
13050;BME280;6591;51.446;5.404;2024-03-29T06:37:18;98877.41;;;14.98;50.58
13050;BME280;6591;51.446;5.404;2024-03-29T06:39:48;98870.63;;;15.03;50.34
13050;BME280;6591;51.446;5.404;2024-03-29T06:42:14;98866.84;;;15.06;50.59
13050;BME280;6591;51.446;5.404;2024-03-29T06:44:40;98867.25;;;15.11;50.70
13050;BME280;6591;51.446;5.404;2024-03-29T06:47:08;98858.91;;;15.14;50.63
13050;BME280;6591;51.446;5.404;2024-03-29T06:49:35;98840.59;;;15.19;50.93
13050;BME280;6591;51.446;5.404;2024-03-29T06:52:02;98843.66;;;15.24;50.80
13050;BME280;6591;51.446;5.404;2024-03-29T06:54:28;98852.25;;;15.27;51.05
13050;BME280;6591;51.446;5.404;2024-03-29T06:56:56;98858.84;;;15.33;51.03
13050;BME280;6591;51.446;5.404;2024-03-29T06:59:23;98870.59;;;15.40;50.77
13050;BME280;6591;51.446;5.404;2024-03-29T07:01:49;98859.47;;;15.45;51.08
13050;BME280;6591;51.446;5.404;2024-03-29T07:04:23;98857.19;;;15.50;51.14
13050;BME280;6591;51.446;5.404;2024-03-29T07:06:51;98861.13;;;15.55;51.19
13050;BME280;6591;51.446;5.404;2024-03-29T07:09:19;98861.38;;;15.62;51.37
13050;BME280;6591;51.446;5.404;2024-03-29T07:11:47;98864.28;;;15.68;51.39
13050;BME280;6591;51.446;5.404;2024-03-29T07:14:14;98870.03;;;15.74;51.27
13050;BME280;6591;51.446;5.404;2024-03-29T07:16:44;98872.94;;;15.80;51.55
13050;BME280;6591;51.446;5.404;2024-03-29T07:19:12;98882.22;;;15.86;51.47
13050;BME280;6591;51.446;5.404;2024-03-29T07:21:45;98877.06;;;15.92;51.68
13050;BME280;6591;51.446;5.404;2024-03-29T07:24:12;98892.25;;;16.01;51.54
13050;BME280;6591;51.446;5.404;2024-03-29T07:26:39;98899.34;;;16.10;51.39
13050;BME280;6591;51.446;5.404;2024-03-29T07:29:06;98903.63;;;16.21;51.50
13050;BME280;6591;51.446;5.404;2024-03-29T07:31:33;98906.09;;;16.32;51.68
13050;BME280;6591;51.446;5.404;2024-03-29T07:34:00;98900.19;;;16.46;51.67
13050;BME280;6591;51.446;5.404;2024-03-29T07:36:26;98887.94;;;16.62;52.06
13050;BME280;6591;51.446;5.404;2024-03-29T07:38:59;98879.16;;;16.77;51.96
13050;BME280;6591;51.446;5.404;2024-03-29T07:41:25;98886.63;;;16.91;52.01
13050;BME280;6591;51.446;5.404;2024-03-29T07:43:57;98890.72;;;17.04;51.44
13050;BME280;6591;51.446;5.404;2024-03-29T07:46:33;98892.44;;;17.13;51.36
13050;BME280;6591;51.446;5.404;2024-03-29T07:49:01;98889.63;;;17.22;51.30
13050;BME280;6591;51.446;5.404;2024-03-29T07:51:27;98887.88;;;17.31;50.85
13050;BME280;6591;51.446;5.404;2024-03-29T07:53:53;98881.84;;;17.37;51.25
13050;BME280;6591;51.446;5.404;2024-03-29T07:56:19;98874.81;;;17.44;51.09
13050;BME280;6591;51.446;5.404;2024-03-29T07:58:54;98879.41;;;17.52;50.83
13050;BME280;6591;51.446;5.404;2024-03-29T08:01:22;98879.28;;;17.61;51.00
13050;BME280;6591;51.446;5.404;2024-03-29T08:03:51;98872.44;;;17.67;50.57
13050;BME280;6591;51.446;5.404;2024-03-29T08:06:20;98868.09;;;17.74;50.56
13050;BME280;6591;51.446;5.404;2024-03-29T08:08:46;98865.56;;;17.81;50.60
13050;BME280;6591;51.446;5.404;2024-03-29T08:11:12;98874.31;;;17.83;50.55
13050;BME280;6591;51.446;5.404;2024-03-29T08:13:40;98886.25;;;17.88;50.13
13050;BME280;6591;51.446;5.404;2024-03-29T08:16:06;98884.06;;;17.92;50.29
13050;BME280;6591;51.446;5.404;2024-03-29T08:18:32;98863.28;;;17.94;50.01
13050;BME280;6591;51.446;5.404;2024-03-29T08:21:02;98863.75;;;17.97;50.45
13050;BME280;6591;51.446;5.404;2024-03-29T08:23:29;98871.50;;;18.00;50.41
13050;BME280;6591;51.446;5.404;2024-03-29T08:25:55;98897.19;;;18.03;49.96
13050;BME280;6591;51.446;5.404;2024-03-29T08:28:24;98888.78;;;18.06;50.27
13050;BME280;6591;51.446;5.404;2024-03-29T08:31:02;98894.69;;;18.09;50.17
13050;BME280;6591;51.446;5.404;2024-03-29T08:33:28;98884.78;;;18.18;50.00
13050;BME280;6591;51.446;5.404;2024-03-29T08:35:56;98882.59;;;18.21;50.12
13050;BME280;6591;51.446;5.404;2024-03-29T08:38:23;98886.47;;;18.27;50.21
13050;BME280;6591;51.446;5.404;2024-03-29T08:40:49;98889.16;;;18.35;50.25
13050;BME280;6591;51.446;5.404;2024-03-29T08:43:16;98882.09;;;18.42;50.47
13050;BME280;6591;51.446;5.404;2024-03-29T08:45:45;98892.50;;;18.53;50.08
13050;BME280;6591;51.446;5.404;2024-03-29T08:48:11;98907.69;;;18.63;50.09
13050;BME280;6591;51.446;5.404;2024-03-29T08:50:37;98916.09;;;18.68;49.67
13050;BME280;6591;51.446;5.404;2024-03-29T08:53:04;98910.38;;;18.71;49.76
13050;BME280;6591;51.446;5.404;2024-03-29T08:55:31;98924.13;;;18.76;49.78
13050;BME280;6591;51.446;5.404;2024-03-29T08:57:58;98915.91;;;18.77;49.57
13050;BME280;6591;51.446;5.404;2024-03-29T09:00:26;98909.19;;;18.81;49.49
13050;BME280;6591;51.446;5.404;2024-03-29T09:02:52;98914.19;;;18.84;49.79
13050;BME280;6591;51.446;5.404;2024-03-29T09:05:19;98910.00;;;18.90;49.82
13050;BME280;6591;51.446;5.404;2024-03-29T09:07:45;98907.47;;;18.96;49.90
13050;BME280;6591;51.446;5.404;2024-03-29T09:10:13;98921.94;;;19.03;49.68
13050;BME280;6591;51.446;5.404;2024-03-29T09:12:39;98918.38;;;19.11;49.91
13050;BME280;6591;51.446;5.404;2024-03-29T09:15:06;98922.75;;;19.20;49.90
13050;BME280;6591;51.446;5.404;2024-03-29T09:17:57;98908.56;;;19.26;49.69
13050;BME280;6591;51.446;5.404;2024-03-29T09:20:27;98920.66;;;19.38;49.58
13050;BME280;6591;51.446;5.404;2024-03-29T09:22:53;98928.94;;;19.45;49.58
13050;BME280;6591;51.446;5.404;2024-03-29T09:25:19;98921.00;;;19.52;49.22
13050;BME280;6591;51.446;5.404;2024-03-29T09:27:45;98916.94;;;19.56;49.05
13050;BME280;6591;51.446;5.404;2024-03-29T09:30:14;98925.34;;;19.61;49.30
13050;BME280;6591;51.446;5.404;2024-03-29T09:32:41;98936.59;;;19.64;49.13
13050;BME280;6591;51.446;5.404;2024-03-29T09:35:07;98949.19;;;19.72;49.48
13050;BME280;6591;51.446;5.404;2024-03-29T09:37:34;98950.84;;;19.81;49.37
13050;BME280;6591;51.446;5.404;2024-03-29T09:40:03;98956.47;;;19.94;49.66
13050;BME280;6591;51.446;5.404;2024-03-29T09:42:32;98948.69;;;20.07;49.66
13050;BME280;6591;51.446;5.404;2024-03-29T09:45:02;98956.50;;;20.25;49.74
13050;BME280;6591;51.446;5.404;2024-03-29T09:47:32;98955.91;;;20.46;49.76
13050;BME280;6591;51.446;5.404;2024-03-29T09:50:03;98961.47;;;20.67;49.42
13050;BME280;6591;51.446;5.404;2024-03-29T09:52:34;98962.75;;;20.94;49.63
13050;BME280;6591;51.446;5.404;2024-03-29T09:55:01;98971.31;;;21.20;49.25
13050;BME280;6591;51.446;5.404;2024-03-29T09:57:28;98971.72;;;21.46;48.74
13050;BME280;6591;51.446;5.404;2024-03-29T09:59:57;98968.66;;;21.64;48.14
13050;BME280;6591;51.446;5.404;2024-03-29T10:02:30;98968.53;;;21.72;47.79
13050;BME280;6591;51.446;5.404;2024-03-29T10:04:59;98970.78;;;21.83;47.24
13050;BME280;6591;51.446;5.404;2024-03-29T10:07:29;98956.91;;;21.86;46.92
13050;BME280;6591;51.446;5.404;2024-03-29T10:09:57;98955.88;;;21.87;47.08
13050;BME280;6591;51.446;5.404;2024-03-29T10:12:24;98955.06;;;21.87;46.95
13050;BME280;6591;51.446;5.404;2024-03-29T10:14:51;98946.72;;;21.88;46.69
13050;BME280;6591;51.446;5.404;2024-03-29T10:17:24;98938.34;;;21.83;45.88
13050;BME280;6591;51.446;5.404;2024-03-29T10:19:50;98929.69;;;21.73;45.85
13050;BME280;6591;51.446;5.404;2024-03-29T10:22:16;98938.75;;;21.66;45.75
13050;BME280;6591;51.446;5.404;2024-03-29T10:24:42;98940.97;;;21.62;45.65
13050;BME280;6591;51.446;5.404;2024-03-29T10:27:09;98942.56;;;21.56;45.67
13050;BME280;6591;51.446;5.404;2024-03-29T10:29:35;98955.44;;;21.54;45.71
13050;BME280;6591;51.446;5.404;2024-03-29T10:32:01;98972.66;;;21.53;45.93
13050;BME280;6591;51.446;5.404;2024-03-29T10:34:29;98957.56;;;21.59;46.02
13050;BME280;6591;51.446;5.404;2024-03-29T10:37:02;98947.72;;;21.66;45.82
13050;BME280;6591;51.446;5.404;2024-03-29T10:39:31;98956.63;;;21.81;46.58
13050;BME280;6591;51.446;5.404;2024-03-29T10:41:59;98956.25;;;21.99;46.49
13050;BME280;6591;51.446;5.404;2024-03-29T10:44:28;98959.22;;;22.19;46.09
13050;BME280;6591;51.446;5.404;2024-03-29T10:46:56;98963.34;;;22.36;45.69
13050;BME280;6591;51.446;5.404;2024-03-29T10:49:24;98967.09;;;22.56;45.70
13050;BME280;6591;51.446;5.404;2024-03-29T10:51:50;98980.22;;;22.74;45.44
13050;BME280;6591;51.446;5.404;2024-03-29T10:54:17;99005.78;;;22.93;45.02
13050;BME280;6591;51.446;5.404;2024-03-29T10:56:47;99007.72;;;22.99;44.03
13050;BME280;6591;51.446;5.404;2024-03-29T10:59:27;99005.03;;;22.99;43.94
13050;BME280;6591;51.446;5.404;2024-03-29T11:02:00;99009.81;;;22.97;43.65
13050;BME280;6591;51.446;5.404;2024-03-29T11:04:37;99007.88;;;22.91;43.45
13050;BME280;6591;51.446;5.404;2024-03-29T11:07:19;98998.84;;;22.84;43.12
13050;BME280;6591;51.446;5.404;2024-03-29T11:09:57;98989.03;;;22.83;43.63
13050;BME280;6591;51.446;5.404;2024-03-29T11:12:27;98964.56;;;22.91;43.39
13050;BME280;6591;51.446;5.404;2024-03-29T11:15:03;98950.69;;;23.00;43.31
13050;BME280;6591;51.446;5.404;2024-03-29T11:17:31;98949.75;;;23.14;43.62
13050;BME280;6591;51.446;5.404;2024-03-29T11:20:00;98957.16;;;23.27;43.32
13050;BME280;6591;51.446;5.404;2024-03-29T11:22:28;98964.97;;;23.43;43.33
13050;BME280;6591;51.446;5.404;2024-03-29T11:24:54;98967.19;;;23.54;42.66
13050;BME280;6591;51.446;5.404;2024-03-29T11:27:23;98972.00;;;23.59;42.34
13050;BME280;6591;51.446;5.404;2024-03-29T11:29:52;98984.72;;;23.58;41.58
13050;BME280;6591;51.446;5.404;2024-03-29T11:32:37;98985.25;;;23.47;41.33
13050;BME280;6591;51.446;5.404;2024-03-29T11:35:05;98992.06;;;23.43;41.59
13050;BME280;6591;51.446;5.404;2024-03-29T11:37:31;98986.84;;;23.42;41.79
13050;BME280;6591;51.446;5.404;2024-03-29T11:40:01;98995.81;;;23.42;41.82
13050;BME280;6591;51.446;5.404;2024-03-29T11:42:47;98992.06;;;23.43;41.26
13050;BME280;6591;51.446;5.404;2024-03-29T11:45:14;98978.81;;;23.48;41.41
13050;BME280;6591;51.446;5.404;2024-03-29T11:47:40;98975.91;;;23.50;41.08
13050;BME280;6591;51.446;5.404;2024-03-29T11:50:09;98999.22;;;23.51;40.43
13050;BME280;6591;51.446;5.404;2024-03-29T11:52:38;98999.28;;;23.57;41.31
13050;BME280;6591;51.446;5.404;2024-03-29T11:55:05;98998.53;;;23.70;41.57
13050;BME280;6591;51.446;5.404;2024-03-29T11:57:35;99012.41;;;23.88;41.66
13050;BME280;6591;51.446;5.404;2024-03-29T12:00:06;99000.63;;;24.09;41.26
13050;BME280;6591;51.446;5.404;2024-03-29T12:02:33;99002.63;;;24.28;41.08
13050;BME280;6591;51.446;5.404;2024-03-29T12:04:59;99002.03;;;24.39;40.01
13050;BME280;6591;51.446;5.404;2024-03-29T12:07:25;99007.09;;;24.49;40.25
13050;BME280;6591;51.446;5.404;2024-03-29T12:09:52;99000.44;;;24.58;39.42
13050;BME280;6591;51.446;5.404;2024-03-29T12:12:18;99003.56;;;24.62;39.67
13050;BME280;6591;51.446;5.404;2024-03-29T12:14:44;98993.13;;;24.59;38.36
13050;BME280;6591;51.446;5.404;2024-03-29T12:17:11;99009.56;;;24.51;38.89
13050;BME280;6591;51.446;5.404;2024-03-29T12:19:38;99007.91;;;24.43;38.66
13050;BME280;6591;51.446;5.404;2024-03-29T12:22:08;99006.00;;;24.37;38.51
13050;BME280;6591;51.446;5.404;2024-03-29T12:24:35;99013.91;;;24.32;38.96
13050;BME280;6591;51.446;5.404;2024-03-29T12:27:02;99008.44;;;24.25;38.18
13050;BME280;6591;51.446;5.404;2024-03-29T12:29:28;99012.59;;;24.21;38.47
13050;BME280;6591;51.446;5.404;2024-03-29T12:32:01;99011.34;;;24.17;38.29
13050;BME280;6591;51.446;5.404;2024-03-29T12:34:28;99009.06;;;24.21;38.75
13050;BME280;6591;51.446;5.404;2024-03-29T12:36:54;99015.13;;;24.23;38.36
13050;BME280;6591;51.446;5.404;2024-03-29T12:39:21;99018.69;;;24.23;38.33
13050;BME280;6591;51.446;5.404;2024-03-29T12:41:47;99019.31;;;24.25;38.59
13050;BME280;6591;51.446;5.404;2024-03-29T12:44:13;99011.38;;;24.30;38.79
13050;BME280;6591;51.446;5.404;2024-03-29T12:46:39;99009.75;;;24.36;38.81
13050;BME280;6591;51.446;5.404;2024-03-29T12:49:05;99008.09;;;24.41;38.72
13050;BME280;6591;51.446;5.404;2024-03-29T12:51:32;99000.41;;;24.52;38.93
13050;BME280;6591;51.446;5.404;2024-03-29T12:54:02;99000.84;;;24.62;38.67
13050;BME280;6591;51.446;5.404;2024-03-29T12:56:30;98996.06;;;24.70;38.77
13050;BME280;6591;51.446;5.404;2024-03-29T12:58:57;99012.16;;;24.78;38.35
13050;BME280;6591;51.446;5.404;2024-03-29T13:01:23;99007.38;;;24.87;38.69
13050;BME280;6591;51.446;5.404;2024-03-29T13:03:49;99004.50;;;24.95;38.31
13050;BME280;6591;51.446;5.404;2024-03-29T13:06:16;99008.28;;;25.01;38.38
13050;BME280;6591;51.446;5.404;2024-03-29T13:08:42;99014.13;;;25.04;38.03
13050;BME280;6591;51.446;5.404;2024-03-29T13:11:08;99006.38;;;25.08;38.59
13050;BME280;6591;51.446;5.404;2024-03-29T13:13:35;99018.09;;;25.15;38.02
13050;BME280;6591;51.446;5.404;2024-03-29T13:16:02;99015.78;;;25.18;38.28